sensor_id;sensor_type;location;lat;lon;timestamp;P1;durP1;ratioP1;P2;durP2;ratioP2
32319;SDS011;19080;51.750;5.888;2024-02-15T00:00:24;16.77;;;13.57;;
32319;SDS011;19080;51.750;5.888;2024-02-15T00:02:53;15.15;;;13.55;;
32319;SDS011;19080;51.750;5.888;2024-02-15T00:05:20;20.25;;;14.32;;
32319;SDS011;19080;51.750;5.888;2024-02-15T00:07:47;19.73;;;14.27;;
32319;SDS011;19080;51.750;5.888;2024-02-15T00:10:15;13.65;;;12.35;;
32319;SDS011;19080;51.750;5.888;2024-02-15T00:12:42;15.63;;;12.88;;
32319;SDS011;19080;51.750;5.888;2024-02-15T00:15:08;13.38;;;12.05;;
32319;SDS011;19080;51.750;5.888;2024-02-15T00:17:37;13.98;;;12.00;;
32319;SDS011;19080;51.750;5.888;2024-02-15T00:20:04;13.55;;;11.40;;
32319;SDS011;19080;51.750;5.888;2024-02-15T00:22:36;13.60;;;12.30;;
32319;SDS011;19080;51.750;5.888;2024-02-15T00:25:03;18.67;;;12.00;;
32319;SDS011;19080;51.750;5.888;2024-02-15T00:27:32;17.45;;;11.88;;
32319;SDS011;19080;51.750;5.888;2024-02-15T00:30:01;15.15;;;10.43;;
32319;SDS011;19080;51.750;5.888;2024-02-15T00:32:30;14.93;;;11.52;;
32319;SDS011;19080;51.750;5.888;2024-02-15T00:34:57;11.77;;;10.25;;
32319;SDS011;19080;51.750;5.888;2024-02-15T00:37:24;10.75;;;9.68;;
32319;SDS011;19080;51.750;5.888;2024-02-15T00:39:50;11.73;;;9.95;;
32319;SDS011;19080;51.750;5.888;2024-02-15T00:42:17;13.32;;;11.60;;
32319;SDS011;19080;51.750;5.888;2024-02-15T00:44:44;14.05;;;10.48;;
32319;SDS011;19080;51.750;5.888;2024-02-15T00:47:11;14.88;;;11.50;;
32319;SDS011;19080;51.750;5.888;2024-02-15T00:49:38;12.50;;;10.90;;
32319;SDS011;19080;51.750;5.888;2024-02-15T00:52:05;13.73;;;11.90;;
32319;SDS011;19080;51.750;5.888;2024-02-15T00:54:32;14.15;;;11.10;;
32319;SDS011;19080;51.750;5.888;2024-02-15T00:56:59;13.93;;;10.65;;
32319;SDS011;19080;51.750;5.888;2024-02-15T00:59:25;14.50;;;10.77;;
32319;SDS011;19080;51.750;5.888;2024-02-15T01:01:52;16.38;;;12.75;;
32319;SDS011;19080;51.750;5.888;2024-02-15T01:04:19;17.80;;;11.52;;
32319;SDS011;19080;51.750;5.888;2024-02-15T01:06:46;16.50;;;12.85;;
32319;SDS011;19080;51.750;5.888;2024-02-15T01:09:14;15.05;;;11.75;;
32319;SDS011;19080;51.750;5.888;2024-02-15T01:11:40;16.20;;;12.90;;
32319;SDS011;19080;51.750;5.888;2024-02-15T01:14:07;14.85;;;11.80;;
32319;SDS011;19080;51.750;5.888;2024-02-15T01:16:36;14.85;;;11.88;;
32319;SDS011;19080;51.750;5.888;2024-02-15T01:19:03;21.02;;;13.38;;
32319;SDS011;19080;51.750;5.888;2024-02-15T01:21:30;13.77;;;11.45;;
32319;SDS011;19080;51.750;5.888;2024-02-15T01:23:59;15.20;;;13.60;;
32319;SDS011;19080;51.750;5.888;2024-02-15T01:26:29;17.80;;;13.20;;
32319;SDS011;19080;51.750;5.888;2024-02-15T01:28:56;19.45;;;13.15;;
32319;SDS011;19080;51.750;5.888;2024-02-15T01:31:23;18.42;;;13.23;;
32319;SDS011;19080;51.750;5.888;2024-02-15T01:33:49;19.45;;;13.60;;
32319;SDS011;19080;51.750;5.888;2024-02-15T01:36:17;16.92;;;13.48;;
32319;SDS011;19080;51.750;5.888;2024-02-15T01:38:44;18.38;;;12.02;;
32319;SDS011;19080;51.750;5.888;2024-02-15T01:41:11;14.88;;;12.90;;
32319;SDS011;19080;51.750;5.888;2024-02-15T01:43:39;14.95;;;11.88;;
32319;SDS011;19080;51.750;5.888;2024-02-15T01:46:10;19.05;;;12.77;;
32319;SDS011;19080;51.750;5.888;2024-02-15T01:48:37;19.83;;;11.85;;
32319;SDS011;19080;51.750;5.888;2024-02-15T01:51:09;18.80;;;12.93;;
32319;SDS011;19080;51.750;5.888;2024-02-15T01:53:38;16.57;;;10.83;;
32319;SDS011;19080;51.750;5.888;2024-02-15T01:56:07;14.93;;;11.23;;
32319;SDS011;19080;51.750;5.888;2024-02-15T01:58:34;18.00;;;10.23;;
32319;SDS011;19080;51.750;5.888;2024-02-15T02:01:02;19.58;;;11.18;;
32319;SDS011;19080;51.750;5.888;2024-02-15T02:03:29;16.95;;;11.00;;
32319;SDS011;19080;51.750;5.888;2024-02-15T02:05:56;18.00;;;10.70;;
32319;SDS011;19080;51.750;5.888;2024-02-15T02:08:23;14.38;;;9.32;;
32319;SDS011;19080;51.750;5.888;2024-02-15T02:10:50;22.80;;;10.57;;
32319;SDS011;19080;51.750;5.888;2024-02-15T02:13:17;14.93;;;10.20;;
32319;SDS011;19080;51.750;5.888;2024-02-15T02:15:45;15.80;;;9.82;;
32319;SDS011;19080;51.750;5.888;2024-02-15T02:18:12;13.82;;;9.35;;
32319;SDS011;19080;51.750;5.888;2024-02-15T02:20:39;15.55;;;10.70;;
32319;SDS011;19080;51.750;5.888;2024-02-15T02:23:07;17.23;;;9.60;;
32319;SDS011;19080;51.750;5.888;2024-02-15T02:25:39;18.25;;;9.93;;
32319;SDS011;19080;51.750;5.888;2024-02-15T02:28:08;19.17;;;9.52;;
32319;SDS011;19080;51.750;5.888;2024-02-15T02:30:36;16.15;;;8.48;;
32319;SDS011;19080;51.750;5.888;2024-02-15T02:33:03;12.32;;;9.18;;
32319;SDS011;19080;51.750;5.888;2024-02-15T02:35:33;14.38;;;9.38;;
32319;SDS011;19080;51.750;5.888;2024-02-15T02:38:01;20.27;;;8.70;;
32319;SDS011;19080;51.750;5.888;2024-02-15T02:40:28;15.80;;;9.13;;
32319;SDS011;19080;51.750;5.888;2024-02-15T02:42:56;24.45;;;10.10;;
32319;SDS011;19080;51.750;5.888;2024-02-15T02:45:25;13.40;;;8.98;;
32319;SDS011;19080;51.750;5.888;2024-02-15T02:47:52;16.55;;;8.35;;
32319;SDS011;19080;51.750;5.888;2024-02-15T02:50:20;17.00;;;8.90;;
32319;SDS011;19080;51.750;5.888;2024-02-15T02:52:49;17.63;;;8.40;;
32319;SDS011;19080;51.750;5.888;2024-02-15T02:55:16;20.50;;;9.23;;
32319;SDS011;19080;51.750;5.888;2024-02-15T02:57:43;14.25;;;7.82;;
32319;SDS011;19080;51.750;5.888;2024-02-15T03:00:11;15.85;;;8.68;;
32319;SDS011;19080;51.750;5.888;2024-02-15T03:02:42;12.93;;;7.97;;
32319;SDS011;19080;51.750;5.888;2024-02-15T03:05:09;13.65;;;8.57;;
32319;SDS011;19080;51.750;5.888;2024-02-15T03:07:38;12.35;;;7.82;;
32319;SDS011;19080;51.750;5.888;2024-02-15T03:10:08;14.98;;;8.20;;
32319;SDS011;19080;51.750;5.888;2024-02-15T03:12:37;18.15;;;8.13;;
32319;SDS011;19080;51.750;5.888;2024-02-15T03:15:04;17.83;;;9.13;;
32319;SDS011;19080;51.750;5.888;2024-02-15T03:17:38;12.73;;;8.73;;
32319;SDS011;19080;51.750;5.888;2024-02-15T03:20:08;13.48;;;7.65;;
32319;SDS011;19080;51.750;5.888;2024-02-15T03:22:54;11.18;;;6.10;;
32319;SDS011;19080;51.750;5.888;2024-02-15T03:25:24;11.52;;;7.18;;
32319;SDS011;19080;51.750;5.888;2024-02-15T03:27:52;12.73;;;7.20;;
32319;SDS011;19080;51.750;5.888;2024-02-15T03:30:20;12.73;;;7.88;;
32319;SDS011;19080;51.750;5.888;2024-02-15T03:32:57;16.83;;;7.13;;
32319;SDS011;19080;51.750;5.888;2024-02-15T03:35:25;14.43;;;6.80;;
32319;SDS011;19080;51.750;5.888;2024-02-15T03:37:53;12.50;;;7.03;;
32319;SDS011;19080;51.750;5.888;2024-02-15T03:40:20;14.00;;;7.32;;
32319;SDS011;19080;51.750;5.888;2024-02-15T03:42:48;16.20;;;7.43;;
32319;SDS011;19080;51.750;5.888;2024-02-15T03:45:16;15.13;;;6.65;;
32319;SDS011;19080;51.750;5.888;2024-02-15T03:47:44;11.00;;;6.45;;
32319;SDS011;19080;51.750;5.888;2024-02-15T03:50:11;16.40;;;6.80;;
32319;SDS011;19080;51.750;5.888;2024-02-15T03:52:41;17.30;;;6.40;;
32319;SDS011;19080;51.750;5.888;2024-02-15T03:55:08;11.73;;;6.72;;
32319;SDS011;19080;51.750;5.888;2024-02-15T03:57:35;11.45;;;6.22;;
32319;SDS011;19080;51.750;5.888;2024-02-15T04:00:07;15.43;;;6.82;;
32319;SDS011;19080;51.750;5.888;2024-02-15T04:02:37;11.93;;;6.13;;
32319;SDS011;19080;51.750;5.888;2024-02-15T04:05:07;18.02;;;6.65;;
32319;SDS011;19080;51.750;5.888;2024-02-15T04:07:35;11.77;;;6.38;;
32319;SDS011;19080;51.750;5.888;2024-02-15T04:10:03;14.10;;;5.72;;
32319;SDS011;19080;51.750;5.888;2024-02-15T04:12:31;11.55;;;5.57;;
32319;SDS011;19080;51.750;5.888;2024-02-15T04:14:58;12.02;;;5.65;;
32319;SDS011;19080;51.750;5.888;2024-02-15T04:17:31;12.88;;;5.88;;
32319;SDS011;19080;51.750;5.888;2024-02-15T04:20:03;12.77;;;5.60;;
32319;SDS011;19080;51.750;5.888;2024-02-15T04:22:32;8.63;;;5.15;;
32319;SDS011;19080;51.750;5.888;2024-02-15T04:25:05;14.45;;;6.10;;
32319;SDS011;19080;51.750;5.888;2024-02-15T04:27:33;11.63;;;4.75;;
32319;SDS011;19080;51.750;5.888;2024-02-15T04:30:00;13.27;;;5.10;;
32319;SDS011;19080;51.750;5.888;2024-02-15T04:32:29;11.95;;;4.70;;
32319;SDS011;19080;51.750;5.888;2024-02-15T04:35:00;12.50;;;5.35;;
32319;SDS011;19080;51.750;5.888;2024-02-15T04:37:28;14.60;;;5.38;;
32319;SDS011;19080;51.750;5.888;2024-02-15T04:39:56;10.90;;;4.40;;
32319;SDS011;19080;51.750;5.888;2024-02-15T04:42:23;13.00;;;4.72;;
32319;SDS011;19080;51.750;5.888;2024-02-15T04:44:53;11.85;;;4.82;;
32319;SDS011;19080;51.750;5.888;2024-02-15T04:47:20;11.43;;;4.03;;
32319;SDS011;19080;51.750;5.888;2024-02-15T04:49:47;12.45;;;4.68;;
32319;SDS011;19080;51.750;5.888;2024-02-15T04:52:14;10.80;;;4.28;;
32319;SDS011;19080;51.750;5.888;2024-02-15T04:54:41;13.35;;;4.38;;
32319;SDS011;19080;51.750;5.888;2024-02-15T04:57:07;12.07;;;3.90;;
32319;SDS011;19080;51.750;5.888;2024-02-15T04:59:35;9.80;;;4.05;;
32319;SDS011;19080;51.750;5.888;2024-02-15T05:02:01;12.48;;;4.25;;
32319;SDS011;19080;51.750;5.888;2024-02-15T05:04:28;16.95;;;4.75;;
32319;SDS011;19080;51.750;5.888;2024-02-15T05:06:55;10.52;;;3.75;;
32319;SDS011;19080;51.750;5.888;2024-02-15T05:09:22;11.50;;;3.90;;
32319;SDS011;19080;51.750;5.888;2024-02-15T05:11:49;11.30;;;4.05;;
32319;SDS011;19080;51.750;5.888;2024-02-15T05:14:16;8.27;;;3.70;;
32319;SDS011;19080;51.750;5.888;2024-02-15T05:16:46;12.25;;;4.13;;
32319;SDS011;19080;51.750;5.888;2024-02-15T05:19:17;7.22;;;3.22;;
32319;SDS011;19080;51.750;5.888;2024-02-15T05:21:45;11.90;;;4.00;;
32319;SDS011;19080;51.750;5.888;2024-02-15T05:24:15;9.75;;;3.95;;
32319;SDS011;19080;51.750;5.888;2024-02-15T05:26:44;8.13;;;3.17;;
32319;SDS011;19080;51.750;5.888;2024-02-15T05:29:15;8.30;;;3.83;;
32319;SDS011;19080;51.750;5.888;2024-02-15T05:31:43;9.65;;;3.58;;
32319;SDS011;19080;51.750;5.888;2024-02-15T05:34:10;7.25;;;3.30;;
32319;SDS011;19080;51.750;5.888;2024-02-15T05:36:38;10.68;;;3.47;;
32319;SDS011;19080;51.750;5.888;2024-02-15T05:39:06;9.10;;;3.40;;
32319;SDS011;19080;51.750;5.888;2024-02-15T05:41:34;6.68;;;3.30;;
32319;SDS011;19080;51.750;5.888;2024-02-15T05:44:01;10.43;;;3.47;;
32319;SDS011;19080;51.750;5.888;2024-02-15T05:46:31;7.28;;;3.10;;
32319;SDS011;19080;51.750;5.888;2024-02-15T05:48:57;7.05;;;3.20;;
32319;SDS011;19080;51.750;5.888;2024-02-15T05:51:25;8.63;;;3.30;;
32319;SDS011;19080;51.750;5.888;2024-02-15T05:53:53;5.57;;;3.17;;
32319;SDS011;19080;51.750;5.888;2024-02-15T05:56:25;11.82;;;3.35;;
32319;SDS011;19080;51.750;5.888;2024-02-15T05:58:52;9.77;;;3.35;;
32319;SDS011;19080;51.750;5.888;2024-02-15T06:01:19;6.95;;;3.05;;
32319;SDS011;19080;51.750;5.888;2024-02-15T06:03:46;7.70;;;3.53;;
32319;SDS011;19080;51.750;5.888;2024-02-15T06:06:14;5.43;;;2.95;;
32319;SDS011;19080;51.750;5.888;2024-02-15T06:08:41;15.77;;;4.40;;
32319;SDS011;19080;51.750;5.888;2024-02-15T06:11:12;10.90;;;3.47;;
32319;SDS011;19080;51.750;5.888;2024-02-15T06:13:40;10.93;;;3.92;;
32319;SDS011;19080;51.750;5.888;2024-02-15T06:16:07;9.63;;;3.50;;
32319;SDS011;19080;51.750;5.888;2024-02-15T06:18:36;15.18;;;3.92;;
32319;SDS011;19080;51.750;5.888;2024-02-15T06:21:04;7.72;;;3.60;;
32319;SDS011;19080;51.750;5.888;2024-02-15T06:23:32;12.05;;;3.88;;
32319;SDS011;19080;51.750;5.888;2024-02-15T06:26:00;10.05;;;3.78;;
32319;SDS011;19080;51.750;5.888;2024-02-15T06:28:29;8.60;;;3.17;;
32319;SDS011;19080;51.750;5.888;2024-02-15T06:31:14;9.15;;;3.38;;
32319;SDS011;19080;51.750;5.888;2024-02-15T06:34:00;10.77;;;3.60;;
32319;SDS011;19080;51.750;5.888;2024-02-15T06:36:46;11.45;;;3.10;;
32319;SDS011;19080;51.750;5.888;2024-02-15T06:39:46;8.68;;;3.20;;
32319;SDS011;19080;51.750;5.888;2024-02-15T06:42:13;4.65;;;2.80;;
32319;SDS011;19080;51.750;5.888;2024-02-15T06:44:43;7.78;;;4.00;;
32319;SDS011;19080;51.750;5.888;2024-02-15T06:47:11;11.98;;;3.40;;
32319;SDS011;19080;51.750;5.888;2024-02-15T06:49:39;8.95;;;3.13;;
32319;SDS011;19080;51.750;5.888;2024-02-15T06:52:07;5.38;;;3.03;;
32319;SDS011;19080;51.750;5.888;2024-02-15T06:54:34;8.00;;;3.15;;
32319;SDS011;19080;51.750;5.888;2024-02-15T06:57:04;9.75;;;3.10;;
32319;SDS011;19080;51.750;5.888;2024-02-15T06:59:32;5.35;;;2.53;;
32319;SDS011;19080;51.750;5.888;2024-02-15T07:02:02;6.75;;;3.10;;
32319;SDS011;19080;51.750;5.888;2024-02-15T07:06:59;10.10;;;4.03;;
32319;SDS011;19080;51.750;5.888;2024-02-15T07:09:28;5.95;;;2.88;;
32319;SDS011;19080;51.750;5.888;2024-02-15T07:11:56;6.07;;;2.97;;
32319;SDS011;19080;51.750;5.888;2024-02-15T07:14:23;6.53;;;2.83;;
32319;SDS011;19080;51.750;5.888;2024-02-15T07:16:50;5.70;;;3.17;;
32319;SDS011;19080;51.750;5.888;2024-02-15T07:19:17;7.13;;;3.03;;
32319;SDS011;19080;51.750;5.888;2024-02-15T07:21:45;10.30;;;3.95;;
32319;SDS011;19080;51.750;5.888;2024-02-15T07:24:13;6.78;;;3.47;;
32319;SDS011;19080;51.750;5.888;2024-02-15T07:26:40;6.22;;;3.17;;
32319;SDS011;19080;51.750;5.888;2024-02-15T07:29:07;8.13;;;4.22;;
32319;SDS011;19080;51.750;5.888;2024-02-15T07:31:34;7.20;;;3.40;;
32319;SDS011;19080;51.750;5.888;2024-02-15T07:34:02;10.95;;;3.40;;
32319;SDS011;19080;51.750;5.888;2024-02-15T07:36:32;7.38;;;3.58;;
32319;SDS011;19080;51.750;5.888;2024-02-15T07:38:59;8.55;;;3.40;;
32319;SDS011;19080;51.750;5.888;2024-02-15T07:41:28;9.57;;;3.50;;
32319;SDS011;19080;51.750;5.888;2024-02-15T07:43:55;11.68;;;3.60;;
32319;SDS011;19080;51.750;5.888;2024-02-15T07:46:24;6.22;;;3.25;;
32319;SDS011;19080;51.750;5.888;2024-02-15T07:48:51;5.82;;;2.95;;
32319;SDS011;19080;51.750;5.888;2024-02-15T07:51:18;9.40;;;3.25;;
32319;SDS011;19080;51.750;5.888;2024-02-15T07:53:47;8.75;;;3.53;;
32319;SDS011;19080;51.750;5.888;2024-02-15T07:56:15;5.07;;;3.25;;
32319;SDS011;19080;51.750;5.888;2024-02-15T07:58:43;9.32;;;3.50;;
32319;SDS011;19080;51.750;5.888;2024-02-15T08:01:18;5.07;;;3.25;;
32319;SDS011;19080;51.750;5.888;2024-02-15T08:03:50;9.88;;;3.17;;
32319;SDS011;19080;51.750;5.888;2024-02-15T08:06:17;5.32;;;3.30;;
32319;SDS011;19080;51.750;5.888;2024-02-15T08:08:45;8.88;;;3.80;;
32319;SDS011;19080;51.750;5.888;2024-02-15T08:11:15;8.90;;;3.42;;
32319;SDS011;19080;51.750;5.888;2024-02-15T08:13:45;4.78;;;2.90;;
32319;SDS011;19080;51.750;5.888;2024-02-15T08:16:17;7.97;;;3.53;;
32319;SDS011;19080;51.750;5.888;2024-02-15T08:18:45;7.57;;;3.17;;
32319;SDS011;19080;51.750;5.888;2024-02-15T08:21:15;8.45;;;3.17;;
32319;SDS011;19080;51.750;5.888;2024-02-15T08:23:42;7.38;;;3.58;;
32319;SDS011;19080;51.750;5.888;2024-02-15T08:26:09;6.97;;;3.67;;
32319;SDS011;19080;51.750;5.888;2024-02-15T08:28:39;5.43;;;3.47;;
32319;SDS011;19080;51.750;5.888;2024-02-15T08:31:06;4.57;;;3.40;;
32319;SDS011;19080;51.750;5.888;2024-02-15T08:33:34;6.93;;;3.40;;
32319;SDS011;19080;51.750;5.888;2024-02-15T08:36:01;8.43;;;3.28;;
32319;SDS011;19080;51.750;5.888;2024-02-15T08:38:29;8.88;;;3.15;;
32319;SDS011;19080;51.750;5.888;2024-02-15T08:40:55;5.72;;;2.72;;
32319;SDS011;19080;51.750;5.888;2024-02-15T08:43:22;5.43;;;3.10;;
32319;SDS011;19080;51.750;5.888;2024-02-15T08:45:49;6.07;;;3.20;;
32319;SDS011;19080;51.750;5.888;2024-02-15T08:48:17;7.15;;;3.50;;
32319;SDS011;19080;51.750;5.888;2024-02-15T08:50:44;6.07;;;2.80;;
32319;SDS011;19080;51.750;5.888;2024-02-15T08:53:12;6.75;;;3.25;;
32319;SDS011;19080;51.750;5.888;2024-02-15T08:55:41;6.90;;;3.00;;
32319;SDS011;19080;51.750;5.888;2024-02-15T08:58:08;6.07;;;3.05;;
32319;SDS011;19080;51.750;5.888;2024-02-15T09:00:36;5.85;;;3.17;;
32319;SDS011;19080;51.750;5.888;2024-02-15T09:03:07;6.93;;;2.78;;
32319;SDS011;19080;51.750;5.888;2024-02-15T09:05:34;7.32;;;2.90;;
32319;SDS011;19080;51.750;5.888;2024-02-15T09:08:01;5.82;;;3.05;;
32319;SDS011;19080;51.750;5.888;2024-02-15T09:10:27;10.10;;;3.38;;
32319;SDS011;19080;51.750;5.888;2024-02-15T09:12:54;6.55;;;3.13;;
32319;SDS011;19080;51.750;5.888;2024-02-15T09:15:21;7.13;;;3.25;;
32319;SDS011;19080;51.750;5.888;2024-02-15T09:17:48;7.68;;;2.83;;
32319;SDS011;19080;51.750;5.888;2024-02-15T09:20:16;6.63;;;3.00;;
32319;SDS011;19080;51.750;5.888;2024-02-15T09:22:49;8.57;;;2.72;;
32319;SDS011;19080;51.750;5.888;2024-02-15T09:25:17;7.25;;;3.30;;
32319;SDS011;19080;51.750;5.888;2024-02-15T09:27:44;5.47;;;2.13;;
32319;SDS011;19080;51.750;5.888;2024-02-15T09:30:17;7.97;;;2.53;;
32319;SDS011;19080;51.750;5.888;2024-02-15T09:32:44;5.88;;;2.55;;
32319;SDS011;19080;51.750;5.888;2024-02-15T09:35:12;9.82;;;3.20;;
32319;SDS011;19080;51.750;5.888;2024-02-15T09:37:43;6.72;;;2.95;;
32319;SDS011;19080;51.750;5.888;2024-02-15T09:40:12;9.30;;;3.28;;
32319;SDS011;19080;51.750;5.888;2024-02-15T09:42:39;4.40;;;2.80;;
32319;SDS011;19080;51.750;5.888;2024-02-15T09:45:07;9.50;;;2.88;;
32319;SDS011;19080;51.750;5.888;2024-02-15T09:47:39;7.50;;;3.15;;
32319;SDS011;19080;51.750;5.888;2024-02-15T09:50:09;7.70;;;3.30;;
32319;SDS011;19080;51.750;5.888;2024-02-15T09:52:43;9.63;;;3.10;;
32319;SDS011;19080;51.750;5.888;2024-02-15T09:55:20;9.38;;;3.42;;
32319;SDS011;19080;51.750;5.888;2024-02-15T09:57:50;11.60;;;3.33;;
32319;SDS011;19080;51.750;5.888;2024-02-15T10:00:17;6.85;;;3.35;;
32319;SDS011;19080;51.750;5.888;2024-02-15T10:02:47;9.82;;;3.42;;
32319;SDS011;19080;51.750;5.888;2024-02-15T10:05:14;8.25;;;3.33;;
32319;SDS011;19080;51.750;5.888;2024-02-15T10:07:42;7.10;;;3.50;;
32319;SDS011;19080;51.750;5.888;2024-02-15T10:10:16;7.32;;;3.72;;
32319;SDS011;19080;51.750;5.888;2024-02-15T10:12:52;6.60;;;3.33;;
32319;SDS011;19080;51.750;5.888;2024-02-15T10:15:41;7.30;;;3.38;;
32319;SDS011;19080;51.750;5.888;2024-02-15T10:18:09;5.18;;;2.95;;
32319;SDS011;19080;51.750;5.888;2024-02-15T10:20:39;8.02;;;3.47;;
32319;SDS011;19080;51.750;5.888;2024-02-15T10:25:38;7.88;;;3.53;;
32319;SDS011;19080;51.750;5.888;2024-02-15T10:28:06;8.80;;;3.45;;
32319;SDS011;19080;51.750;5.888;2024-02-15T10:30:42;9.30;;;3.50;;
32319;SDS011;19080;51.750;5.888;2024-02-15T10:33:28;6.20;;;3.15;;
32319;SDS011;19080;51.750;5.888;2024-02-15T10:36:09;8.43;;;2.97;;
32319;SDS011;19080;51.750;5.888;2024-02-15T10:38:40;9.82;;;3.47;;
32319;SDS011;19080;51.750;5.888;2024-02-15T10:41:07;8.98;;;3.40;;
32319;SDS011;19080;51.750;5.888;2024-02-15T10:43:35;14.40;;;3.50;;
32319;SDS011;19080;51.750;5.888;2024-02-15T10:46:04;7.28;;;2.63;;
32319;SDS011;19080;51.750;5.888;2024-02-15T10:48:34;7.65;;;3.05;;
32319;SDS011;19080;51.750;5.888;2024-02-15T10:51:01;5.40;;;2.65;;
32319;SDS011;19080;51.750;5.888;2024-02-15T10:53:33;7.80;;;3.20;;
32319;SDS011;19080;51.750;5.888;2024-02-15T10:58:32;7.55;;;3.00;;
32319;SDS011;19080;51.750;5.888;2024-02-15T11:01:02;8.00;;;2.97;;
32319;SDS011;19080;51.750;5.888;2024-02-15T11:03:35;4.47;;;3.03;;
32319;SDS011;19080;51.750;5.888;2024-02-15T11:06:03;5.50;;;3.22;;
32319;SDS011;19080;51.750;5.888;2024-02-15T11:08:33;9.73;;;3.67;;
32319;SDS011;19080;51.750;5.888;2024-02-15T11:11:01;6.00;;;3.22;;
32319;SDS011;19080;51.750;5.888;2024-02-15T11:13:31;7.47;;;3.33;;
32319;SDS011;19080;51.750;5.888;2024-02-15T11:15:57;8.80;;;3.38;;
32319;SDS011;19080;51.750;5.888;2024-02-15T11:21:12;9.18;;;3.30;;
32319;SDS011;19080;51.750;5.888;2024-02-15T11:23:39;7.97;;;2.97;;
32319;SDS011;19080;51.750;5.888;2024-02-15T11:26:08;7.15;;;3.00;;
32319;SDS011;19080;51.750;5.888;2024-02-15T11:28:36;9.07;;;2.40;;
32319;SDS011;19080;51.750;5.888;2024-02-15T11:31:08;5.80;;;2.65;;
32319;SDS011;19080;51.750;5.888;2024-02-15T11:33:36;6.45;;;2.30;;
32319;SDS011;19080;51.750;5.888;2024-02-15T11:36:10;9.10;;;2.88;;
32319;SDS011;19080;51.750;5.888;2024-02-15T11:38:39;4.53;;;2.40;;
32319;SDS011;19080;51.750;5.888;2024-02-15T11:41:08;6.30;;;2.42;;
32319;SDS011;19080;51.750;5.888;2024-02-15T11:46:13;6.60;;;2.17;;
32319;SDS011;19080;51.750;5.888;2024-02-15T11:48:40;6.28;;;2.05;;
32319;SDS011;19080;51.750;5.888;2024-02-15T11:51:08;3.70;;;2.42;;
32319;SDS011;19080;51.750;5.888;2024-02-15T11:53:38;6.43;;;2.28;;
32319;SDS011;19080;51.750;5.888;2024-02-15T11:56:06;7.00;;;2.05;;
32319;SDS011;19080;51.750;5.888;2024-02-15T11:58:37;4.95;;;1.98;;
32319;SDS011;19080;51.750;5.888;2024-02-15T12:01:18;4.88;;;2.10;;
32319;SDS011;19080;51.750;5.888;2024-02-15T12:04:04;3.78;;;1.75;;
32319;SDS011;19080;51.750;5.888;2024-02-15T12:06:49;5.90;;;2.00;;
32319;SDS011;19080;51.750;5.888;2024-02-15T12:09:43;4.32;;;2.20;;
32319;SDS011;19080;51.750;5.888;2024-02-15T12:12:32;6.18;;;1.88;;
32319;SDS011;19080;51.750;5.888;2024-02-15T12:15:17;4.68;;;2.47;;
32319;SDS011;19080;51.750;5.888;2024-02-15T12:18:15;5.90;;;2.00;;
32319;SDS011;19080;51.750;5.888;2024-02-15T12:21:01;5.53;;;2.10;;
32319;SDS011;19080;51.750;5.888;2024-02-15T12:23:29;5.13;;;2.35;;
32319;SDS011;19080;51.750;5.888;2024-02-15T12:26:00;5.30;;;2.33;;
32319;SDS011;19080;51.750;5.888;2024-02-15T12:28:30;5.40;;;1.98;;
32319;SDS011;19080;51.750;5.888;2024-02-15T12:30:57;4.45;;;1.90;;
32319;SDS011;19080;51.750;5.888;2024-02-15T12:33:24;6.50;;;2.30;;
32319;SDS011;19080;51.750;5.888;2024-02-15T12:35:51;4.15;;;2.10;;
32319;SDS011;19080;51.750;5.888;2024-02-15T12:38:18;4.20;;;2.30;;
32319;SDS011;19080;51.750;5.888;2024-02-15T12:40:45;6.53;;;3.17;;
32319;SDS011;19080;51.750;5.888;2024-02-15T12:43:14;7.65;;;3.28;;
32319;SDS011;19080;51.750;5.888;2024-02-15T12:45:42;7.35;;;2.85;;
32319;SDS011;19080;51.750;5.888;2024-02-15T12:48:09;5.43;;;2.72;;
32319;SDS011;19080;51.750;5.888;2024-02-15T12:50:37;7.22;;;3.00;;
32319;SDS011;19080;51.750;5.888;2024-02-15T12:53:04;7.95;;;3.58;;
32319;SDS011;19080;51.750;5.888;2024-02-15T12:55:33;8.32;;;3.22;;
32319;SDS011;19080;51.750;5.888;2024-02-15T12:58:02;7.63;;;3.13;;
32319;SDS011;19080;51.750;5.888;2024-02-15T13:00:31;7.10;;;3.42;;
32319;SDS011;19080;51.750;5.888;2024-02-15T13:03:01;5.82;;;3.00;;
32319;SDS011;19080;51.750;5.888;2024-02-15T13:05:30;6.07;;;2.90;;
32319;SDS011;19080;51.750;5.888;2024-02-15T13:07:58;4.07;;;3.20;;
32319;SDS011;19080;51.750;5.888;2024-02-15T13:10:25;9.43;;;3.97;;
32319;SDS011;19080;51.750;5.888;2024-02-15T13:12:52;7.47;;;3.28;;
32319;SDS011;19080;51.750;5.888;2024-02-15T13:15:19;5.18;;;2.83;;
32319;SDS011;19080;51.750;5.888;2024-02-15T13:17:48;8.35;;;3.00;;
32319;SDS011;19080;51.750;5.888;2024-02-15T13:20:18;4.60;;;2.65;;
32319;SDS011;19080;51.750;5.888;2024-02-15T13:22:58;7.78;;;2.83;;
32319;SDS011;19080;51.750;5.888;2024-02-15T13:25:35;6.38;;;2.80;;
32319;SDS011;19080;51.750;5.888;2024-02-15T13:28:11;9.25;;;3.30;;
32319;SDS011;19080;51.750;5.888;2024-02-15T13:30:39;10.32;;;3.10;;
32319;SDS011;19080;51.750;5.888;2024-02-15T13:33:07;7.47;;;3.38;;
32319;SDS011;19080;51.750;5.888;2024-02-15T13:35:34;5.93;;;2.72;;
32319;SDS011;19080;51.750;5.888;2024-02-15T13:38:03;5.00;;;2.60;;
32319;SDS011;19080;51.750;5.888;2024-02-15T13:40:29;5.85;;;2.58;;
32319;SDS011;19080;51.750;5.888;2024-02-15T13:42:59;5.82;;;2.80;;
32319;SDS011;19080;51.750;5.888;2024-02-15T13:45:31;4.43;;;2.70;;
32319;SDS011;19080;51.750;5.888;2024-02-15T13:48:05;3.45;;;2.50;;
32319;SDS011;19080;51.750;5.888;2024-02-15T13:50:37;6.90;;;2.58;;
32319;SDS011;19080;51.750;5.888;2024-02-15T13:53:05;6.07;;;3.10;;
32319;SDS011;19080;51.750;5.888;2024-02-15T13:55:33;6.28;;;3.25;;
32319;SDS011;19080;51.750;5.888;2024-02-15T13:58:00;5.40;;;2.30;;
32319;SDS011;19080;51.750;5.888;2024-02-15T14:00:27;2.95;;;1.98;;
32319;SDS011;19080;51.750;5.888;2024-02-15T14:03:01;4.65;;;2.30;;
32319;SDS011;19080;51.750;5.888;2024-02-15T14:05:29;5.13;;;2.28;;
32319;SDS011;19080;51.750;5.888;2024-02-15T14:07:57;8.20;;;2.47;;
32319;SDS011;19080;51.750;5.888;2024-02-15T14:10:28;5.53;;;2.58;;
32319;SDS011;19080;51.750;5.888;2024-02-15T14:12:56;3.42;;;2.30;;
32319;SDS011;19080;51.750;5.888;2024-02-15T14:15:26;4.05;;;2.03;;
32319;SDS011;19080;51.750;5.888;2024-02-15T14:17:54;4.65;;;2.33;;
32319;SDS011;19080;51.750;5.888;2024-02-15T14:20:22;6.97;;;1.88;;
32319;SDS011;19080;51.750;5.888;2024-02-15T14:22:50;6.60;;;2.38;;
32319;SDS011;19080;51.750;5.888;2024-02-15T14:25:23;3.33;;;2.40;;
32319;SDS011;19080;51.750;5.888;2024-02-15T14:27:53;3.78;;;2.15;;
32319;SDS011;19080;51.750;5.888;2024-02-15T14:30:20;7.15;;;2.28;;
32319;SDS011;19080;51.750;5.888;2024-02-15T14:33:06;5.65;;;2.22;;
32319;SDS011;19080;51.750;5.888;2024-02-15T14:35:46;4.13;;;2.00;;
32319;SDS011;19080;51.750;5.888;2024-02-15T14:38:13;6.60;;;2.15;;
32319;SDS011;19080;51.750;5.888;2024-02-15T14:40:42;2.97;;;1.52;;
32319;SDS011;19080;51.750;5.888;2024-02-15T14:43:12;7.43;;;2.47;;
32319;SDS011;19080;51.750;5.888;2024-02-15T14:45:44;4.85;;;1.95;;
32319;SDS011;19080;51.750;5.888;2024-02-15T14:48:12;3.67;;;1.83;;
32319;SDS011;19080;51.750;5.888;2024-02-15T14:50:41;6.78;;;1.73;;
32319;SDS011;19080;51.750;5.888;2024-02-15T14:53:08;7.00;;;2.53;;
32319;SDS011;19080;51.750;5.888;2024-02-15T14:55:35;7.88;;;2.53;;
32319;SDS011;19080;51.750;5.888;2024-02-15T14:58:05;4.88;;;2.50;;
32319;SDS011;19080;51.750;5.888;2024-02-15T15:00:39;8.95;;;5.60;;
32319;SDS011;19080;51.750;5.888;2024-02-15T15:03:08;11.15;;;6.07;;
32319;SDS011;19080;51.750;5.888;2024-02-15T15:05:35;5.82;;;4.10;;